createdAt,value
2019-02-02T00:02:08.192Z,85.98
2019-02-02T00:04:39.387Z,86.15
2019-02-02T00:07:10.646Z,86.07
2019-02-02T00:09:41.879Z,86.34
2019-02-02T00:12:13.058Z,86.53
2019-02-02T00:14:45.272Z,86.67
2019-02-02T00:17:16.743Z,87.18
2019-02-02T00:19:48.209Z,86.42
2019-02-02T00:22:19.447Z,86.57
2019-02-02T00:24:50.710Z,86.45
2019-02-02T00:27:21.855Z,86.50
2019-02-02T00:29:53.021Z,86.45
2019-02-02T00:32:24.172Z,86.73
2019-02-02T00:34:55.789Z,86.20
2019-02-02T00:37:27.247Z,85.98
2019-02-02T00:39:58.391Z,86.22
2019-02-02T00:42:29.651Z,86.76
2019-02-02T00:45:00.770Z,87.03
2019-02-02T00:47:32.799Z,86.95
2019-02-02T00:50:07.227Z,86.96
2019-02-02T00:52:38.459Z,86.62
2019-02-02T00:55:10.114Z,86.34
2019-02-02T00:57:52.697Z,85.92
2019-02-02T01:00:14.856Z,85.98
2019-02-02T01:02:46.005Z,85.85
2019-02-02T01:05:17.522Z,85.67
2019-02-02T01:07:48.844Z,85.90
2019-02-02T01:10:25.486Z,85.74
2019-02-02T01:12:56.731Z,85.80
2019-02-02T01:15:29.085Z,85.59
2019-02-02T01:18:01.501Z,86.04
2019-02-02T01:20:32.789Z,86.66
2019-02-02T01:23:05.075Z,86.49
2019-02-02T01:25:36.211Z,86.45
2019-02-02T01:28:07.364Z,86.29
2019-02-02T01:30:38.505Z,86.08
2019-02-02T01:33:09.915Z,86.04
2019-02-02T01:35:41.609Z,85.97
2019-02-02T01:38:12.981Z,86.25
2019-02-02T01:40:44.132Z,86.49
2019-02-02T01:43:15.469Z,85.97
2019-02-02T01:45:46.701Z,86.16
2019-02-02T01:48:17.917Z,86.17
2019-02-02T01:50:49.066Z,86.27
2019-02-02T01:53:20.226Z,86.52
2019-02-02T01:55:51.362Z,86.37
2019-02-02T01:58:22.603Z,85.84
2019-02-02T02:00:53.814Z,85.83
2019-02-02T02:03:24.967Z,85.60
2019-02-02T02:05:56.171Z,85.66
2019-02-02T02:08:27.330Z,85.97
2019-02-02T02:10:58.454Z,85.78
2019-02-02T02:13:29.613Z,86.10
2019-02-02T02:16:00.774Z,85.78
2019-02-02T02:18:32.041Z,86.14
2019-02-02T02:21:03.248Z,85.69
2019-02-02T02:23:35.678Z,85.68
2019-02-02T02:26:06.894Z,85.52
2019-02-02T02:28:38.049Z,85.55
2019-02-02T02:31:09.139Z,85.99
2019-02-02T02:33:40.383Z,86.12
2019-02-02T02:36:11.524Z,86.04
2019-02-02T02:38:42.873Z,86.25
2019-02-02T02:41:14.224Z,85.87
2019-02-02T02:43:45.294Z,85.55
2019-02-02T02:46:16.519Z,85.82
2019-02-02T02:48:48.264Z,85.95
2019-02-02T02:51:19.511Z,85.85
2019-02-02T02:53:50.559Z,85.93
2019-02-02T02:56:21.711Z,85.90
2019-02-02T02:58:52.842Z,86.44
2019-02-02T03:01:24.197Z,86.05
2019-02-02T03:03:55.351Z,86.01
2019-02-02T03:06:26.939Z,85.66
2019-02-02T03:08:58.457Z,85.98
2019-02-02T03:11:29.668Z,85.71
2019-02-02T03:14:00.881Z,85.75
2019-02-02T03:16:32.029Z,85.94
2019-02-02T03:19:03.937Z,85.40
2019-02-02T03:21:35.005Z,85.75
2019-02-02T03:24:06.192Z,85.60
2019-02-02T03:26:37.429Z,86.01
2019-02-02T03:29:08.662Z,86.31
2019-02-02T03:31:39.850Z,86.35
2019-02-02T03:34:10.937Z,86.66
2019-02-02T03:36:43.453Z,86.53
2019-02-02T03:39:14.978Z,86.37
2019-02-02T03:41:46.059Z,86.33
2019-02-02T03:44:17.207Z,85.95
2019-02-02T03:46:48.347Z,85.90
2019-02-02T03:49:19.551Z,85.83
2019-02-02T03:51:51.745Z,86.00
2019-02-02T03:54:22.895Z,85.85
2019-02-02T03:56:54.038Z,86.04
2019-02-02T03:59:25.050Z,86.12
2019-02-02T04:01:56.294Z,85.82
2019-02-02T04:04:27.657Z,85.79
2019-02-02T04:06:58.808Z,85.66
2019-02-02T04:09:30.802Z,86.01
2019-02-02T04:12:02.740Z,85.79
2019-02-02T04:14:34.789Z,86.62
2019-02-02T04:17:05.969Z,86.57
2019-02-02T04:19:37.181Z,86.10
2019-02-02T04:22:08.309Z,86.36
2019-02-02T04:24:40.848Z,86.11
2019-02-02T04:27:12.023Z,86.47
2019-02-02T04:29:43.318Z,87.43
2019-02-02T04:32:14.492Z,87.34
2019-02-02T04:34:45.809Z,87.33
2019-02-02T04:37:16.984Z,86.87
2019-02-02T04:39:48.228Z,86.88
2019-02-02T04:42:21.576Z,86.99
2019-02-02T04:44:52.734Z,87.18
2019-02-02T04:47:24.365Z,87.41
2019-02-02T04:49:55.583Z,87.13
2019-02-02T04:52:26.608Z,86.64
2019-02-02T04:54:57.725Z,86.12
2019-02-02T04:57:28.834Z,86.29
2019-02-02T05:00:00.204Z,86.54
2019-02-02T05:02:31.241Z,86.47
2019-02-02T05:05:03.013Z,86.06
2019-02-02T05:07:34.821Z,86.25
2019-02-02T05:10:06.205Z,86.93
2019-02-02T05:12:37.402Z,86.72
2019-02-02T05:15:08.603Z,87.30
2019-02-02T05:17:39.886Z,86.82
2019-02-02T05:20:12.220Z,86.64
2019-02-02T05:22:44.065Z,86.61
2019-02-02T05:25:15.248Z,86.16
2019-02-02T05:27:46.426Z,86.06
2019-02-02T05:30:20.596Z,86.04
2019-02-02T05:32:51.738Z,85.89
2019-02-02T05:35:22.865Z,86.43
2019-02-02T05:37:55.461Z,86.52
2019-02-02T05:40:26.606Z,87.16
2019-02-02T05:42:57.758Z,86.84
2019-02-02T05:45:28.850Z,86.48
2019-02-02T05:47:59.977Z,86.33
2019-02-02T05:50:31.062Z,86.29
2019-02-02T05:53:02.643Z,86.22
2019-02-02T05:55:33.957Z,86.18
2019-02-02T05:58:05.510Z,86.42
2019-02-02T06:00:55.547Z,86.42
2019-02-02T06:03:26.798Z,86.91
2019-02-02T06:05:58.052Z,87.05
2019-02-02T06:08:29.143Z,86.74
2019-02-02T06:11:00.394Z,86.90
2019-02-02T06:13:31.995Z,87.08
2019-02-02T06:16:04.615Z,86.55
2019-02-02T06:18:36.225Z,86.75
2019-02-02T06:21:07.303Z,87.31
2019-02-02T06:23:38.482Z,87.20
2019-02-02T06:26:09.677Z,87.04
2019-02-02T06:28:40.865Z,87.06
2019-02-02T06:31:12.898Z,87.25
2019-02-02T06:33:44.682Z,86.66
2019-02-02T06:36:15.743Z,86.53
2019-02-02T06:38:48.403Z,86.24
2019-02-02T06:41:19.583Z,86.73
2019-02-02T06:43:50.772Z,86.70
2019-02-02T06:46:22.655Z,86.64
2019-02-02T06:48:53.889Z,86.90
2019-02-02T06:51:25.036Z,86.97
2019-02-02T06:53:56.171Z,87.03
2019-02-02T06:56:27.318Z,86.19
2019-02-02T06:58:58.528Z,86.58
2019-02-02T07:01:29.761Z,86.67
2019-02-02T07:04:00.919Z,86.47
2019-02-02T07:06:32.682Z,86.63
2019-02-02T07:09:05.150Z,86.99
2019-02-02T07:11:36.740Z,86.65
2019-02-02T07:14:08.584Z,86.32
2019-02-02T07:16:39.683Z,86.30
2019-02-02T07:19:15.739Z,87.25
2019-02-02T07:21:50.062Z,87.33
2019-02-02T07:24:21.237Z,87.28
2019-02-02T07:26:55.622Z,87.64
2019-02-02T07:29:28.394Z,87.62
2019-02-02T07:31:59.707Z,86.67
2019-02-02T07:34:30.814Z,87.29
2019-02-02T07:37:02.596Z,87.67
2019-02-02T07:39:34.306Z,87.48
2019-02-02T07:42:05.462Z,87.26
2019-02-02T07:44:37.185Z,86.99
2019-02-02T07:47:09.306Z,86.58
2019-02-02T07:49:40.445Z,87.13
2019-02-02T07:52:11.681Z,87.48
2019-02-02T07:54:42.799Z,87.26
2019-02-02T07:57:13.965Z,87.24
2019-02-02T07:59:45.119Z,86.64
2019-02-02T08:02:16.202Z,86.49
2019-02-02T08:04:50.481Z,86.39
2019-02-02T08:07:25.027Z,86.99
2019-02-02T08:09:56.206Z,87.04
2019-02-02T08:12:27.437Z,87.11
2019-02-02T08:14:58.704Z,87.27
2019-02-02T08:17:32.305Z,86.65
2019-02-02T08:20:02.826Z,86.34
2019-02-02T08:22:33.973Z,86.70
2019-02-02T08:25:06.172Z,86.29
2019-02-02T08:27:37.322Z,85.93
2019-02-02T08:30:16.457Z,85.82
2019-02-02T08:32:47.745Z,85.68
2019-02-02T08:35:18.967Z,85.43
2019-02-02T08:37:50.215Z,85.22
2019-02-02T08:40:21.404Z,85.16
2019-02-02T08:42:53.080Z,85.35
2019-02-02T08:45:24.254Z,85.22
2019-02-02T08:47:55.483Z,85.60
2019-02-02T08:50:29.526Z,85.32
2019-02-02T08:53:04.036Z,85.03
2019-02-02T08:55:35.348Z,84.85
2019-02-02T08:58:06.738Z,84.75
2019-02-02T09:00:37.890Z,84.88
2019-02-02T09:03:09.129Z,85.00
2019-02-02T09:05:40.356Z,85.18
2019-02-02T09:08:11.663Z,84.58
2019-02-02T09:10:42.889Z,84.53
2019-02-02T09:13:14.105Z,84.52
2019-02-02T09:15:45.327Z,84.55
2019-02-02T09:18:16.397Z,84.29
2019-02-02T09:20:47.720Z,84.80
2019-02-02T09:23:18.866Z,85.02
2019-02-02T09:25:50.145Z,84.61
2019-02-02T09:28:21.342Z,84.89
2019-02-02T09:30:52.865Z,84.89
2019-02-02T09:33:24.346Z,84.73
2019-02-02T09:35:57.356Z,84.38
2019-02-02T09:38:28.516Z,84.39
2019-02-02T09:41:00.032Z,84.35
2019-02-02T09:43:31.261Z,84.50
2019-02-02T09:46:04.767Z,84.16
2019-02-02T09:48:35.982Z,83.84
2019-02-02T09:51:07.798Z,83.45
2019-02-02T09:53:39.363Z,83.55
2019-02-02T09:56:10.832Z,83.44
2019-02-02T09:58:42.921Z,83.78
2019-02-02T10:01:27.867Z,83.58
2019-02-02T10:03:57.084Z,83.79
2019-02-02T10:06:28.256Z,83.94
2019-02-02T10:08:59.412Z,83.80
2019-02-02T10:11:31.782Z,83.77
2019-02-02T10:14:05.688Z,83.20
2019-02-02T10:16:40.861Z,83.73
2019-02-02T10:19:11.251Z,83.34
2019-02-02T10:21:42.593Z,83.50
2019-02-02T10:24:14.100Z,83.28
2019-02-02T10:26:51.384Z,83.44
2019-02-02T10:29:26.569Z,83.09
2019-02-02T10:31:55.911Z,82.90
2019-02-02T10:34:27.246Z,82.96
2019-02-02T10:36:58.484Z,82.99
2019-02-02T10:39:29.775Z,82.91
2019-02-02T10:42:00.961Z,82.85
2019-02-02T10:44:33.225Z,82.98
2019-02-02T10:47:04.405Z,83.15
2019-02-02T10:49:35.538Z,82.00
2019-02-02T10:52:06.745Z,82.34
2019-02-02T10:54:38.192Z,81.95
2019-02-02T10:57:09.378Z,82.03
2019-02-02T10:59:40.609Z,82.03
2019-02-02T11:02:11.769Z,82.21
2019-02-02T11:04:44.189Z,82.28
2019-02-02T11:07:15.398Z,81.69
2019-02-02T11:09:46.569Z,82.27
2019-02-02T11:12:17.715Z,82.04
2019-02-02T11:14:49.314Z,81.88
2019-02-02T11:17:20.695Z,81.46
2019-02-02T11:19:51.856Z,81.65
2019-02-02T11:22:23.210Z,81.92
2019-02-02T11:24:54.549Z,81.45
2019-02-02T11:27:25.710Z,80.98
2019-02-02T11:29:57.172Z,81.61
2019-02-02T11:32:33.929Z,81.89
2019-02-02T11:35:06.495Z,81.25
2019-02-02T11:37:37.930Z,81.08
2019-02-02T11:40:12.042Z,81.39
2019-02-02T11:42:43.197Z,81.46
2019-02-02T11:45:14.557Z,81.47
2019-02-02T11:47:46.335Z,81.14
2019-02-02T11:50:17.605Z,80.63
2019-02-02T11:52:49.107Z,80.42
2019-02-02T11:55:20.257Z,81.19
2019-02-02T11:57:51.641Z,81.02
2019-02-02T12:00:27.819Z,81.53
2019-02-02T12:02:59.166Z,81.66
2019-02-02T12:05:30.421Z,81.86
2019-02-02T12:08:01.602Z,81.77
2019-02-02T12:10:32.779Z,81.44
2019-02-02T12:13:04.624Z,81.44
2019-02-02T12:15:35.859Z,81.72
2019-02-02T12:18:07.054Z,81.67
2019-02-02T12:20:38.269Z,81.81
2019-02-02T12:23:09.594Z,81.51
2019-02-02T12:25:40.862Z,81.64
2019-02-02T12:28:12.551Z,81.83
2019-02-02T12:30:43.994Z,81.75
2019-02-02T12:33:15.547Z,81.63
2019-02-02T12:35:47.017Z,81.55
2019-02-02T12:38:18.281Z,81.95
2019-02-02T12:40:49.470Z,81.90
2019-02-02T12:43:20.637Z,81.74
2019-02-02T12:45:53.502Z,81.83
2019-02-02T12:48:24.660Z,82.20
2019-02-02T12:50:56.871Z,82.15
2019-02-02T12:53:28.006Z,82.29
2019-02-02T12:55:59.164Z,82.19
2019-02-02T12:58:30.701Z,81.80
2019-02-02T13:01:01.919Z,81.92
2019-02-02T13:03:33.010Z,81.97
2019-02-02T13:06:04.592Z,82.20
2019-02-02T13:08:36.908Z,82.01
2019-02-02T13:11:08.106Z,82.11
2019-02-02T13:13:42.762Z,82.16
2019-02-02T13:16:14.100Z,82.32
2019-02-02T13:18:45.211Z,82.63
2019-02-02T13:21:16.393Z,82.32
2019-02-02T13:23:47.811Z,82.61
2019-02-02T13:26:19.601Z,82.73
2019-02-02T13:28:50.711Z,82.54
2019-02-02T13:31:21.814Z,82.79
2019-02-02T13:33:53.018Z,82.82
2019-02-02T13:36:24.192Z,82.87
2019-02-02T13:38:55.344Z,83.09
2019-02-02T13:41:27.076Z,83.40
2019-02-02T13:43:58.262Z,84.22
2019-02-02T13:46:29.428Z,84.45
2019-02-02T13:49:00.605Z,84.19
2019-02-02T13:51:31.789Z,84.32
2019-02-02T13:54:03.101Z,84.83
2019-02-02T13:56:34.334Z,84.62
2019-02-02T13:59:05.514Z,84.10
2019-02-02T14:01:42.175Z,84.13
2019-02-02T14:04:09.841Z,83.83
2019-02-02T14:06:40.950Z,83.82
2019-02-02T14:09:12.037Z,83.65
2019-02-02T14:11:44.179Z,83.85
2019-02-02T14:14:15.343Z,84.01
2019-02-02T14:16:46.547Z,84.52
2019-02-02T14:19:18.179Z,84.17
2019-02-02T14:21:49.281Z,83.98
2019-02-02T14:24:20.475Z,83.85
2019-02-02T14:26:51.685Z,83.50
2019-02-02T14:29:22.860Z,83.91
2019-02-02T14:31:54.520Z,84.36
2019-02-02T14:34:25.797Z,84.22
2019-02-02T14:36:56.978Z,84.43
2019-02-02T14:39:28.153Z,84.67
2019-02-02T14:41:59.225Z,84.29
2019-02-02T14:44:30.334Z,84.70
2019-02-02T14:47:01.515Z,85.11
2019-02-02T14:49:34.642Z,84.66
2019-02-02T14:52:06.014Z,84.61
2019-02-02T14:54:38.222Z,84.66
2019-02-02T14:57:09.606Z,84.68
2019-02-02T14:59:40.682Z,84.58
2019-02-02T15:02:11.832Z,84.92
2019-02-02T15:04:44.434Z,84.47
2019-02-02T15:07:15.636Z,85.06
2019-02-02T15:09:46.804Z,84.86
2019-02-02T15:12:18.002Z,84.35
2019-02-02T15:14:49.295Z,84.28
2019-02-02T15:17:20.599Z,83.94
2019-02-02T15:19:51.751Z,84.69
2019-02-02T15:22:23.057Z,84.64
2019-02-02T15:24:54.250Z,84.21
2019-02-02T15:27:26.470Z,84.12
2019-02-02T15:29:58.268Z,84.30
2019-02-02T15:32:29.372Z,84.55
2019-02-02T15:35:00.654Z,84.20
2019-02-02T15:37:31.825Z,84.65
2019-02-02T15:40:03.092Z,84.73
2019-02-02T15:42:34.267Z,85.06
2019-02-02T15:45:06.930Z,84.53
2019-02-02T15:47:38.219Z,84.94
2019-02-02T15:50:11.847Z,84.88
2019-02-02T15:52:43.042Z,85.19
2019-02-02T15:55:18.631Z,84.90
2019-02-02T15:57:49.912Z,85.43
2019-02-02T16:00:26.050Z,85.15
2019-02-02T16:02:57.233Z,85.15
2019-02-02T16:05:29.222Z,85.29
2019-02-02T16:08:01.966Z,84.63
2019-02-02T16:10:33.646Z,84.81
2019-02-02T16:13:05.023Z,84.90
2019-02-02T16:15:36.122Z,85.20
2019-02-02T16:18:07.503Z,85.31
2019-02-02T16:20:46.407Z,85.47
2019-02-02T16:23:17.558Z,85.33
2019-02-02T16:25:48.781Z,84.82
2019-02-02T16:28:20.134Z,84.90
2019-02-02T16:30:51.302Z,85.13
2019-02-02T16:33:23.162Z,85.27
2019-02-02T16:35:54.454Z,84.93
2019-02-02T16:38:25.704Z,85.39
2019-02-02T16:40:56.919Z,85.39
2019-02-02T16:43:28.212Z,85.36
2019-02-02T16:45:59.433Z,85.45
2019-02-02T16:48:30.717Z,85.42
2019-02-02T16:51:01.929Z,85.65
2019-02-02T16:53:33.100Z,85.05
2019-02-02T16:56:05.229Z,84.91
2019-02-02T16:58:37.701Z,84.72
2019-02-02T17:01:09.105Z,85.04
2019-02-02T17:03:40.323Z,84.93
2019-02-02T17:06:13.031Z,84.89
2019-02-02T17:08:44.265Z,84.74
2019-02-02T17:11:16.421Z,84.59
2019-02-02T17:13:47.767Z,84.62
2019-02-02T17:16:19.004Z,84.39
2019-02-02T17:18:50.179Z,84.92
2019-02-02T17:21:21.383Z,85.08
2019-02-02T17:23:52.705Z,84.96
2019-02-02T17:26:24.304Z,84.94
2019-02-02T17:28:55.498Z,84.65
2019-02-02T17:31:26.758Z,85.26
2019-02-02T17:33:58.123Z,84.85
2019-02-02T17:36:31.418Z,85.55
2019-02-02T17:39:02.700Z,85.15
2019-02-02T17:41:35.629Z,85.51
2019-02-02T17:44:07.142Z,85.31
2019-02-02T17:46:38.683Z,85.14
2019-02-02T17:49:09.923Z,85.02
2019-02-02T17:51:41.020Z,85.82
2019-02-02T17:54:12.623Z,85.43
2019-02-02T17:56:43.956Z,85.55
2019-02-02T17:59:15.919Z,85.74
2019-02-02T18:01:47.038Z,86.46
2019-02-02T18:04:18.130Z,86.38
2019-02-02T18:06:49.612Z,85.96
2019-02-02T18:09:20.683Z,85.49
2019-02-02T18:11:53.557Z,85.17
2019-02-02T18:14:25.663Z,85.32
2019-02-02T18:16:57.119Z,84.96
2019-02-02T18:19:28.711Z,85.21
2019-02-02T18:21:59.916Z,85.42
2019-02-02T18:24:31.158Z,85.34
2019-02-02T18:27:02.807Z,85.19
2019-02-02T18:29:33.992Z,85.85
2019-02-02T18:32:12.716Z,85.67
2019-02-02T18:34:38.202Z,85.46
2019-02-02T18:37:09.432Z,85.94
2019-02-02T18:39:40.652Z,85.57
2019-02-02T18:42:11.870Z,85.77
2019-02-02T18:44:43.073Z,85.79
2019-02-02T18:47:15.939Z,85.11
2019-02-02T18:49:47.118Z,85.26
2019-02-02T18:52:18.296Z,85.23
2019-02-02T18:54:49.521Z,85.22
2019-02-02T18:57:22.176Z,85.23
2019-02-02T18:59:53.931Z,85.96
2019-02-02T19:02:26.132Z,85.77
2019-02-02T19:05:03.790Z,85.58
2019-02-02T19:07:30.141Z,85.64
2019-02-02T19:10:01.322Z,86.04
2019-02-02T19:12:34.121Z,86.31
2019-02-02T19:15:06.032Z,85.87
2019-02-02T19:17:38.252Z,86.54
2019-02-02T19:20:12.339Z,85.85
2019-02-02T19:22:44.765Z,86.02
2019-02-02T19:25:15.957Z,86.52
2019-02-02T19:27:47.055Z,85.91
2019-02-02T19:30:20.507Z,86.17
2019-02-02T19:32:51.738Z,86.10
2019-02-02T19:35:22.890Z,85.99
2019-02-02T19:37:55.672Z,86.16
2019-02-02T19:40:26.868Z,85.74
2019-02-02T19:42:58.107Z,85.99
2019-02-02T19:45:29.326Z,86.11
2019-02-02T19:48:00.570Z,86.26
2019-02-02T19:50:32.913Z,85.67
2019-02-02T19:53:04.943Z,85.52
2019-02-02T19:55:36.783Z,85.60
2019-02-02T19:58:08.626Z,85.77
2019-02-02T20:00:39.891Z,85.46
2019-02-02T20:03:11.226Z,86.08
2019-02-02T20:05:42.917Z,86.36
2019-02-02T20:08:14.043Z,86.04
2019-02-02T20:10:47.221Z,85.92
2019-02-02T20:13:19.582Z,85.50
2019-02-02T20:15:50.966Z,85.93
2019-02-02T20:18:24.962Z,85.54
2019-02-02T20:20:55.927Z,85.75
2019-02-02T20:23:28.717Z,85.76
2019-02-02T20:25:59.887Z,86.26
2019-02-02T20:28:31.168Z,86.00
2019-02-02T20:31:02.902Z,86.03
2019-02-02T20:33:34.008Z,86.26
2019-02-02T20:36:06.416Z,86.01
2019-02-02T20:38:40.053Z,86.19
2019-02-02T20:41:10.968Z,86.25
2019-02-02T20:43:42.914Z,85.90
2019-02-02T20:46:14.111Z,85.79
2019-02-02T20:48:45.363Z,85.81
2019-02-02T20:51:16.610Z,85.56
2019-02-02T20:53:47.770Z,85.64
2019-02-02T20:56:18.949Z,85.73
2019-02-02T20:58:50.130Z,86.10
2019-02-02T21:01:21.311Z,85.41
2019-02-02T21:03:53.013Z,85.07
2019-02-02T21:06:24.201Z,85.94
2019-02-02T21:08:55.397Z,85.82
2019-02-02T21:11:26.938Z,85.85
2019-02-02T21:13:58.193Z,86.18
2019-02-02T21:16:31.732Z,85.74
2019-02-02T21:19:03.036Z,85.79
2019-02-02T21:21:34.321Z,86.38
2019-02-02T21:24:05.624Z,86.41
2019-02-02T21:26:37.310Z,86.28
2019-02-02T21:29:08.537Z,86.21
2019-02-02T21:31:39.784Z,86.17
2019-02-02T21:34:11.178Z,86.24
2019-02-02T21:36:42.734Z,85.64
2019-02-02T21:39:14.274Z,85.64
2019-02-02T21:41:45.726Z,85.71
2019-02-02T21:44:16.862Z,86.18
2019-02-02T21:46:53.055Z,86.54
2019-02-02T21:49:24.258Z,85.96
2019-02-02T21:51:55.418Z,85.83
2019-02-02T21:54:26.880Z,86.34
2019-02-02T21:56:58.037Z,85.60
2019-02-02T21:59:29.638Z,85.45
2019-02-02T22:02:00.893Z,86.16
2019-02-02T22:04:32.750Z,86.08
2019-02-02T22:07:04.048Z,86.00
2019-02-02T22:09:35.539Z,86.17
2019-02-02T22:12:06.798Z,86.21
2019-02-02T22:14:37.991Z,86.00
2019-02-02T22:17:09.148Z,86.85
2019-02-02T22:19:40.341Z,86.63
2019-02-02T22:22:11.568Z,86.06
2019-02-02T22:24:42.811Z,85.73
2019-02-02T22:27:14.337Z,86.19
2019-02-02T22:29:46.673Z,85.67
2019-02-02T22:32:18.288Z,86.41
2019-02-02T22:34:49.362Z,86.05
2019-02-02T22:37:20.523Z,86.52
2019-02-02T22:39:51.651Z,86.09
2019-02-02T22:42:22.788Z,85.61
2019-02-02T22:44:54.171Z,86.09
2019-02-02T22:47:25.321Z,86.41
2019-02-02T22:49:56.485Z,86.55
2019-02-02T22:52:28.403Z,86.04
2019-02-02T22:55:03.252Z,86.15
2019-02-02T22:57:34.482Z,86.44
2019-02-02T23:00:15.952Z,86.60
2019-02-02T23:02:49.206Z,86.18
2019-02-02T23:05:46.591Z,86.42
2019-02-02T23:09:00.851Z,86.08
2019-02-02T23:12:14.018Z,86.91
2019-02-02T23:15:41.720Z,86.68
2019-02-02T23:18:12.880Z,86.52
2019-02-02T23:20:44.042Z,86.15
2019-02-02T23:23:15.210Z,86.54
2019-02-02T23:25:46.468Z,86.36
2019-02-02T23:28:17.671Z,85.88
2019-02-02T23:30:48.869Z,86.23
2019-02-02T23:33:21.012Z,86.45
2019-02-02T23:35:53.185Z,86.65
2019-02-02T23:38:24.402Z,86.77
2019-02-02T23:40:55.546Z,87.08
2019-02-02T23:43:26.756Z,86.07
2019-02-02T23:45:57.922Z,85.97
2019-02-02T23:48:29.796Z,85.64
2019-02-02T23:51:00.935Z,85.81
2019-02-02T23:53:32.716Z,85.60
2019-02-02T23:56:04.557Z,85.56
2019-02-02T23:58:35.761Z,86.02
